Date,TemperatureHighF,TemperatureAvgF,TemperatureLowF,DewpointHighF,DewpointAvgF,DewpointLowF,HumidityHigh,HumidityAvg,HumidityLow,PressureMaxIn,PressureMinIn,WindSpeedMaxMPH,WindSpeedAvgMPH,GustSpeedMaxMPH,PrecipitationSumIn
2013-1-1,29.8,28.4,26.9,25.0,23.4,22.1,90,81,76,30.65,30.55,6,2,13,0.01
2013-1-2,29.8,29.1,27.8,24.4,23.4,22.2,82,79,76,30.64,30.50,11,6,20,0.00
2013-1-3,29.6,28.3,25.7,23.4,22.1,20.3,91,77,72,30.50,30.38,11,4,20,0.00
2013-1-4,31.9,28.3,25.7,26.5,24.0,21.7,92,84,73,30.46,30.37,6,1,12,0.01
2013-1-5,29.6,28.8,28.0,27.5,26.0,23.3,94,89,81,30.43,30.27,4,1,9,0.01
2013-1-6,34.4,30.2,25.5,30.7,27.9,23.8,94,91,81,30.27,30.09,2,0,4,0.06
2013-1-7,52.6,41.6,32.2,47.4,38.2,30.4,98,88,75,30.14,29.97,12,4,32,0.20
2013-1-8,53.9,45.9,39.5,48.0,42.4,37.9,96,88,71,30.17,29.87,12,4,26,0.19
2013-1-9,50.1,38.7,33.2,44.3,36.5,31.6,97,92,83,29.95,29.67,11,3,24,0.36
2013-1-10,40.0,36.2,33.3,35.0,32.1,29.9,94,85,75,30.05,29.93,10,4,21,0.02
2013-1-11,40.2,32.9,25.1,30.7,26.6,21.9,90,78,49,30.30,30.04,9,2,20,0.00
2013-1-12,37.0,26.6,21.1,26.9,22.4,18.9,92,84,63,30.42,30.30,2,0,5,0.00
2013-1-13,31.4,23.1,16.7,24.9,19.8,14.3,92,87,73,30.51,30.41,2,0,6,0.00
2013-1-14,38.7,30.6,19.2,33.1,26.3,17.2,93,84,70,30.50,30.38,14,6,37,0.01
2013-1-15,44.6,35.9,31.4,36.5,32.3,29.2,93,87,73,30.63,30.48,10,2,25,0.00
2013-1-16,34.9,32.2,29.8,33.8,30.3,27.8,100,93,89,30.60,30.55,4,1,10,0.00
2013-1-17,29.8,29.0,28.1,27.7,26.1,25.4,92,89,86,30.61,30.45,6,3,13,0.00
2013-1-18,39.1,30.4,27.0,30.9,26.7,24.1,93,86,71,30.45,30.30,4,1,7,0.00
2013-1-19,30.6,28.9,27.3,27.9,26.6,25.5,94,91,87,30.51,30.35,4,2,10,0.00
2013-1-20,28.6,27.5,26.7,25.5,24.8,23.9,92,90,87,30.59,30.48,9,4,15,0.00
2013-1-21,28.3,27.1,26.4,24.5,23.8,23.4,90,87,84,30.48,30.36,6,3,12,0.00
2013-1-22,27.7,26.5,25.8,23.6,22.9,22.1,89,86,83,30.38,30.21,7,3,13,0.00
2013-1-23,29.8,27.4,26.0,27.2,23.8,21.8,93,86,78,30.23,30.04,8,2,13,0.00
2013-1-24,39.1,32.7,28.3,35.3,30.6,26.3,96,92,83,30.27,30.18,3,0,6,0.17
2013-1-25,37.7,35.2,32.7,36.4,34.1,31.4,97,96,95,30.18,29.96,2,0,4,0.15
2013-1-26,41.8,37.5,34.4,41.5,35.8,33.0,99,94,84,30.05,29.95,8,2,24,0.04
2013-1-27,41.1,38.6,35.9,37.6,35.2,33.5,92,88,80,30.09,30.01,13,5,30,0.00
2013-1-28,42.7,40.0,36.0,38.0,36.0,33.1,91,86,76,30.08,30.01,17,7,40,0.66
2013-1-29,47.2,43.9,40.7,42.0,39.5,36.6,88,84,80,30.35,30.05,15,8,33,0.20
2013-1-30,47.1,45.1,42.4,44.7,42.2,39.4,93,90,86,30.37,30.33,14,8,29,0.10
2013-1-31,51.8,47.2,44.5,43.6,42.1,41.1,90,82,68,30.37,30.29,14,5,33,0.00
2013-2-1,54.2,44.0,33.9,42.5,38.2,31.3,93,81,56,30.42,30.30,10,2,21,0.00
2013-2-2,51.7,38.3,30.8,41.1,34.5,29.3,95,87,66,30.45,30.29,4,0,10,0.00
2013-2-3,46.6,41.0,30.1,40.7,36.5,28.7,97,84,75,30.30,30.19,15,5,33,0.01
2013-2-4,51.0,43.0,35.6,40.5,37.6,32.7,91,81,65,30.19,29.94,2,0,8,0.00
2013-2-5,49.1,42.3,35.3,43.7,39.0,33.2,94,88,78,30.00,29.88,11,2,23,0.25
2013-2-6,48.5,42.2,37.9,41.9,39.1,36.1,100,89,74,30.09,29.89,6,0,13,0.05
2013-2-7,46.0,39.3,29.3,38.8,33.8,27.3,95,81,65,30.11,29.89,10,3,22,0.04
2013-2-8,46.9,35.1,26.0,34.6,30.2,24.5,95,83,57,30.23,30.11,12,3,30,0.00
2013-2-9,44.6,40.8,37.0,37.0,34.3,31.1,84,78,70,30.26,30.15,13,6,32,0.00
2013-2-10,48.3,40.3,29.4,37.9,34.5,27.4,93,80,65,30.32,30.23,14,4,30,0.00
2013-2-11,47.2,42.5,40.2,40.2,36.0,33.3,90,78,68,30.33,30.23,15,8,37,0.00
2013-2-12,50.8,46.4,42.9,44.4,42.2,40.0,92,85,73,30.40,30.32,13,7,28,0.01
2013-2-13,52.3,47.6,44.0,43.9,41.0,36.7,86,78,66,30.45,30.31,15,8,29,0.00
2013-2-14,53.3,46.4,37.7,42.4,39.1,35.0,91,76,66,30.51,30.44,11,5,25,0.00
2013-2-15,56.4,40.4,31.0,43.1,36.0,29.5,96,85,59,30.51,30.26,6,1,14,0.00
2013-2-16,48.8,40.5,30.7,42.5,36.6,29.4,96,86,72,30.26,30.14,16,5,34,0.07
2013-2-17,44.9,40.1,32.0,35.4,31.4,27.3,84,71,59,30.23,30.09,16,5,31,0.00
2013-2-18,44.6,36.4,30.1,33.5,30.4,27.5,91,79,62,30.09,29.77,10,2,19,0.00
2013-2-19,52.4,37.8,27.6,34.5,29.9,25.6,93,75,41,29.96,29.73,5,1,11,0.00
2013-2-20,45.0,37.3,29.0,37.2,32.9,26.5,94,84,68,30.06,29.97,12,3,25,0.04
2013-2-21,42.4,39.6,35.3,38.0,36.0,33.2,94,87,75,30.12,30.05,14,5,31,0.03
2013-2-22,43.6,41.1,37.9,40.4,37.5,31.9,94,87,72,30.11,29.78,15,5,32,0.50
2013-2-23,45.6,39.8,35.8,35.7,33.5,30.7,90,78,63,30.38,29.95,17,7,39,0.02
2013-2-24,47.4,40.8,36.0,35.0,33.5,31.7,88,76,59,30.39,30.06,11,4,22,0.00
2013-2-25,44.0,39.1,36.5,38.6,35.3,31.2,95,86,76,30.31,29.98,15,5,33,0.60
2013-2-26,46.4,40.6,34.4,36.8,34.6,30.9,90,79,65,30.36,30.24,8,3,19,0.00
2013-2-27,51.2,41.3,31.7,41.7,36.9,30.2,100,85,65,30.31,30.24,6,1,13,0.00
2013-2-28,52.0,47.2,42.4,50.0,45.5,40.5,96,94,89,30.39,30.22,8,1,20,0.48
2013-3-1,56.5,51.1,41.4,50.2,47.7,40.1,95,88,76,30.41,30.30,10,3,22,0.04
2013-3-2,53.1,45.8,40.8,47.8,42.5,36.5,97,89,77,30.30,30.07,14,3,30,0.06
2013-3-3,47.9,41.5,30.6,36.6,31.8,27.2,87,69,53,30.25,30.15,12,5,26,0.00
2013-3-4,51.1,37.4,26.8,31.6,26.1,20.7,93,68,35,30.27,30.01,10,2,21,0.00
2013-3-5,40.1,35.7,30.3,36.5,31.7,24.7,93,85,78,30.01,29.76,4,0,9,0.06
2013-3-6,41.9,37.9,33.1,38.8,35.9,31.7,95,92,85,29.93,29.61,7,1,18,0.47
2013-3-7,55.1,41.8,31.7,41.3,34.9,30.1,95,78,44,30.07,29.93,7,1,15,0.00
2013-3-8,57.7,40.2,28.4,37.1,31.8,26.9,95,75,38,30.20,30.02,4,1,10,0.00
2013-3-9,58.1,44.6,28.2,37.6,31.0,26.4,94,63,32,30.45,30.20,12,4,29,0.00
2013-3-10,52.1,45.5,35.8,42.4,36.9,29.6,90,72,53,30.45,30.35,15,6,29,0.01
2013-3-11,52.9,48.2,43.8,46.5,43.8,41.4,93,85,69,30.39,30.21,10,4,21,0.01
2013-3-12,54.1,50.6,44.5,48.9,46.3,42.5,94,86,74,30.21,30.12,16,5,33,0.00
2013-3-13,65.8,54.1,46.6,48.3,45.6,42.4,88,74,52,30.20,30.08,10,4,21,0.00
2013-3-14,62.2,50.3,43.5,49.0,44.1,41.3,94,81,51,30.15,30.00,16,4,35,0.00
2013-3-15,59.0,53.1,48.9,49.0,46.8,43.9,91,80,64,30.20,30.10,12,5,24,0.00
2013-3-16,52.6,45.7,35.3,46.6,41.6,32.7,91,86,77,30.10,29.90,16,7,40,0.62
2013-3-17,43.5,39.7,36.5,35.4,33.2,30.6,92,77,62,30.21,30.02,16,6,31,0.09
2013-3-18,51.4,42.4,33.2,37.3,34.1,29.8,87,73,53,30.21,30.18,13,6,27,0.00
2013-3-19,46.1,38.1,30.9,38.4,33.0,28.6,93,83,57,30.20,29.78,6,1,13,0.23
2013-3-20,51.8,41.2,37.0,45.7,37.0,32.2,96,85,57,30.07,29.57,17,4,41,0.66
2013-3-21,43.8,38.3,36.0,36.4,33.5,31.0,90,83,69,30.23,30.06,14,6,32,0.24
2013-3-22,45.0,38.4,32.5,33.1,30.7,28.0,86,74,55,30.36,30.21,11,5,25,0.01
2013-3-23,49.6,38.1,31.1,32.5,29.3,25.0,90,72,38,30.38,30.26,5,1,12,0.00
2013-3-24,49.5,39.3,29.0,33.5,28.8,25.2,92,69,40,30.32,30.15,8,1,17,0.00
2013-3-25,57.1,43.7,31.0,40.9,31.6,26.8,88,65,38,30.16,29.94,8,2,16,0.01
2013-3-26,56.8,45.5,35.2,41.6,37.1,32.6,91,74,42,30.01,29.93,3,0,7,0.00
2013-3-27,63.2,50.2,39.4,47.2,42.6,36.7,92,77,47,29.99,29.89,13,1,13,0.01
2013-3-28,64.8,51.0,42.2,49.7,44.4,40.8,98,80,46,30.10,29.98,15,1,15,0.02
2013-3-29,70.1,55.3,44.6,48.3,45.1,42.1,93,71,39,30.19,30.10,6,1,12,0.00
2013-3-30,71.6,54.1,38.1,48.5,43.4,36.3,94,71,40,30.23,30.03,8,2,17,0.00
2013-3-31,74.1,55.4,38.2,49.2,42.3,36.2,94,66,31,30.06,29.86,6,1,16,0.00
2013-4-1,62.3,57.2,54.3,49.9,48.6,47.2,81,73,60,30.08,29.93,15,6,35,0.00
2013-4-2,62.4,56.0,51.3,48.8,47.0,45.7,84,72,57,30.15,30.08,13,7,30,0.00
2013-4-3,67.6,55.3,40.8,50.8,45.8,38.7,93,72,42,30.12,29.92,8,2,19,0.00
2013-4-4,57.8,53.5,50.0,54.4,49.0,45.3,91,85,76,29.92,29.71,9,1,21,0.19
2013-4-5,56.6,51.6,48.0,51.4,47.5,45.7,98,86,76,29.91,29.81,9,2,21,0.12
2013-4-6,50.6,46.5,41.6,46.6,43.5,39.4,96,89,76,29.97,29.78,11,2,28,0.60
2013-4-7,47.9,42.9,38.8,43.5,39.6,36.8,95,88,72,29.87,29.57,12,3,30,0.81
2013-4-8,54.0,46.0,40.3,42.6,38.7,35.5,89,76,61,30.25,29.87,12,5,24,0.00
2013-4-9,57.6,48.2,33.7,43.5,39.4,31.6,93,73,54,30.34,30.21,11,3,24,0.00
2013-4-10,58.3,50.6,44.4,50.2,42.7,36.2,91,75,59,30.25,30.00,13,5,32,0.14
2013-4-11,55.6,48.1,42.8,41.1,38.2,35.6,81,69,54,30.26,30.14,15,6,30,0.00
2013-4-12,53.8,44.1,31.9,42.5,37.3,29.8,93,78,55,30.14,29.75,13,4,33,0.03
2013-4-13,47.8,42.0,36.8,42.2,35.7,31.9,92,78,57,30.01,29.76,18,8,39,0.34
2013-4-14,52.0,43.1,36.8,38.0,35.6,32.7,88,75,50,30.02,29.88,12,5,30,0.02
2013-4-15,51.0,43.1,34.9,41.0,36.0,31.8,92,77,54,30.13,29.91,9,2,18,0.01
2013-4-16,53.7,43.5,33.4,38.9,35.1,31.0,94,74,44,30.39,30.13,6,1,13,0.00
2013-4-17,58.5,44.8,29.9,40.6,34.3,28.1,94,70,39,30.47,30.36,11,4,23,0.00
2013-4-18,56.5,49.9,45.4,46.1,40.5,37.3,88,70,57,30.42,30.25,12,6,28,0.00
2013-4-19,56.4,51.1,48.7,49.1,46.3,44.4,90,84,70,30.25,30.07,13,8,31,0.11
2013-4-20,57.0,51.3,47.9,44.9,42.4,39.5,84,72,58,30.27,30.20,12,5,31,0.00
2013-4-21,53.5,48.5,44.7,43.9,41.4,38.9,83,76,66,30.27,30.17,13,6,29,0.00
2013-4-22,61.6,49.1,34.6,41.2,33.4,26.3,94,60,28,30.45,30.27,9,2,19,0.00
2013-4-23,69.2,48.6,30.3,37.6,32.1,27.0,89,58,28,30.41,30.12,5,1,14,0.00
2013-4-24,75.1,53.5,34.8,42.9,33.6,28.6,84,52,21,30.31,29.97,9,1,18,0.00
2013-4-25,74.2,60.4,44.6,45.6,40.4,36.3,76,50,32,30.08,29.96,11,3,22,0.00
2013-4-26,78.2,64.3,46.6,49.7,41.5,34.1,82,47,22,30.16,30.08,10,4,23,0.00
2013-4-27,71.2,59.2,45.6,44.6,38.6,29.1,77,49,22,30.17,30.10,14,5,35,0.00
2013-4-28,64.2,56.4,50.0,48.1,43.9,38.8,88,65,40,30.18,29.96,14,5,32,0.01
2013-4-29,56.0,50.2,43.3,46.7,37.4,28.5,88,63,37,30.12,29.92,16,8,36,0.15
2013-4-30,54.7,46.1,39.0,36.7,32.1,29.8,80,59,40,30.39,30.12,11,4,25,0.00
2013-5-1,65.7,48.9,30.6,37.8,32.6,27.8,91,58,25,30.54,30.39,8,2,16,0.00
2013-5-2,76.9,56.8,35.0,48.7,36.3,30.1,85,51,22,30.53,30.20,7,1,17,0.00
2013-5-3,81.0,62.7,42.7,50.6,42.6,38.2,85,52,24,30.27,30.08,4,1,11,0.00
2013-5-4,78.6,65.2,44.1,47.6,38.9,30.8,87,45,20,30.14,29.92,12,4,23,0.00
2013-5-5,81.4,65.5,47.7,47.5,40.7,36.2,69,44,23,29.92,29.71,10,2,20,0.00
2013-5-6,88.5,68.3,46.2,54.0,46.9,39.9,81,50,19,29.82,29.65,8,2,19,0.00
2013-5-7,74.9,66.0,57.3,52.4,49.5,46.9,69,56,41,29.90,29.75,15,7,39,0.00
2013-5-8,68.9,62.2,56.2,52.5,50.6,48.0,75,66,53,30.04,29.91,15,8,33,0.00
2013-5-9,79.2,67.4,58.3,55.4,52.7,50.6,76,61,39,30.09,29.96,12,7,30,0.00
2013-5-10,85.3,71.6,52.4,56.5,50.2,43.9,84,50,29,30.12,29.99,12,4,25,0.00
2013-5-11,85.4,74.4,61.2,59.2,53.4,47.2,71,49,30,30.10,29.90,9,4,24,0.00
2013-5-12,72.8,65.8,59.5,57.8,55.8,52.6,84,70,54,30.04,29.97,13,8,29,0.00
2013-5-13,68.0,59.4,52.6,54.3,50.0,41.1,86,72,52,30.16,29.97,11,6,30,0.00
2013-5-14,65.3,56.0,45.0,43.4,37.3,22.2,81,53,20,30.18,30.04,11,4,25,0.00
2013-5-15,59.5,53.2,46.9,48.4,43.8,38.1,84,71,53,30.08,29.99,10,4,25,0.00
2013-5-16,69.4,57.3,49.0,52.5,48.2,44.8,89,73,48,30.00,29.85,6,2,20,0.00
2013-5-17,63.6,54.9,49.2,48.2,45.9,41.6,91,73,47,30.05,29.93,11,4,26,0.26
2013-5-18,60.7,53.6,50.7,48.7,46.2,43.8,84,76,62,30.22,30.05,9,5,21,0.00
2013-5-19,63.1,57.1,51.3,50.2,47.2,44.7,83,70,56,30.31,30.22,13,5,31,0.00
2013-5-20,75.8,60.9,41.5,51.1,45.4,39.1,92,60,37,30.28,29.83,10,3,26,0.00
2013-5-21,60.1,49.9,41.3,46.3,41.9,38.1,90,75,55,29.90,29.75,13,6,30,0.24
2013-5-22,46.0,43.5,41.7,42.4,40.2,37.8,94,88,83,29.96,29.87,6,2,17,0.24
2013-5-23,53.0,46.6,40.4,46.4,42.3,38.3,97,85,73,30.03,29.96,7,1,17,0.08
2013-5-24,58.5,50.3,44.8,47.2,44.6,42.1,95,81,62,30.05,29.97,10,3,23,0.13
2013-5-25,65.7,55.4,45.1,48.2,45.6,41.7,89,71,50,30.04,29.91,10,3,20,0.00
2013-5-26,63.7,56.1,50.9,53.6,49.0,46.5,94,78,59,29.99,29.91,12,4,28,0.12
2013-5-27,56.3,51.9,45.6,54.0,49.2,42.8,95,91,76,29.96,29.74,9,1,23,0.36
2013-5-28,61.8,55.0,51.0,50.9,48.2,46.1,87,78,64,29.89,29.75,12,5,26,0.00
2013-5-29,58.0,52.3,47.9,53.1,48.7,45.7,95,88,70,29.99,29.66,10,2,24,0.83
2013-5-30,61.6,53.0,46.3,47.0,45.2,42.1,93,76,54,30.21,29.99,10,5,26,0.04
2013-5-31,68.9,57.6,43.1,48.1,45.2,40.5,93,66,41,30.29,30.16,9,3,21,0.00
2013-6-1,74.5,60.8,44.8,53.5,48.2,42.0,92,66,41,30.19,29.96,10,3,21,0.00
2013-6-2,70.8,61.7,50.0,52.7,49.9,46.8,91,67,45,29.99,29.93,13,5,32,0.00
2013-6-3,73.4,63.2,52.3,53.8,49.8,47.6,84,63,43,30.02,29.92,12,4,28,0.00
2013-6-4,87.1,67.2,47.4,55.9,48.8,42.3,91,57,23,30.07,29.93,8,1,15,0.00
2013-6-5,83.3,68.9,49.9,57.8,51.6,45.9,87,57,29,30.01,29.88,11,3,24,0.00
2013-6-6,80.7,72.2,63.0,60.0,56.7,53.5,78,60,41,29.94,29.86,13,5,31,0.00
2013-6-7,77.8,68.2,60.5,54.6,46.5,33.0,69,47,23,30.05,29.93,14,6,33,0.00
2013-6-8,78.0,67.3,57.4,52.7,46.4,38.3,77,50,28,30.05,29.96,12,6,26,0.00
2013-6-9,73.8,63.0,54.4,52.5,48.0,42.0,77,60,33,29.98,29.88,13,7,34,0.00
2013-6-10,68.5,59.0,49.7,48.0,45.4,40.7,81,62,37,29.92,29.78,13,6,34,0.00
2013-6-11,62.2,55.8,51.5,47.7,44.3,40.5,80,66,51,30.09,29.88,12,6,29,0.00
2013-6-12,65.1,56.9,50.2,47.4,45.4,40.1,84,67,44,30.11,30.07,11,5,26,0.00
2013-6-13,63.1,55.6,49.1,49.8,47.4,44.6,90,75,55,30.20,30.10,12,5,28,0.05
2013-6-14,69.8,59.5,52.3,50.9,47.6,45.3,81,66,47,30.21,29.97,13,5,24,0.00
2013-6-15,85.4,66.4,45.3,54.1,48.6,42.8,92,58,25,29.97,29.82,10,2,25,0.00
2013-6-16,73.7,66.7,60.7,55.5,52.4,47.3,72,61,42,30.02,29.92,14,6,32,0.00
2013-6-17,76.1,67.0,59.3,54.2,51.2,47.5,78,58,40,30.02,29.85,12,6,26,0.00
2013-6-18,70.4,61.3,54.5,50.5,47.2,40.9,81,62,35,29.95,29.83,11,5,28,0.00
2013-6-19,65.5,57.8,53.3,50.2,47.5,44.7,84,69,50,30.01,29.87,10,6,27,0.01
2013-6-20,63.2,56.8,51.8,51.7,49.2,47.4,87,76,59,30.08,29.98,12,5,28,0.01
2013-6-21,68.3,60.0,52.8,51.6,49.3,46.7,86,69,52,30.11,30.05,10,4,23,0.01
2013-6-22,81.3,65.5,46.8,54.6,49.7,44.2,92,61,30,30.08,29.81,5,1,10,0.00
2013-6-23,71.6,64.4,59.0,61.5,57.4,54.2,95,79,60,29.81,29.61,4,0,13,0.13
2013-6-24,66.1,59.6,56.0,58.8,53.0,50.0,96,79,61,29.69,29.59,10,4,24,0.02
2013-6-25,65.5,58.7,54.8,60.1,55.6,52.3,95,90,75,29.86,29.69,6,0,11,0.32
2013-6-26,71.4,61.2,55.1,61.7,55.8,53.5,96,84,58,30.04,29.86,7,1,19,0.06
2013-6-27,80.9,68.1,56.5,62.4,58.5,54.6,94,74,51,30.13,30.03,8,1,21,0.00
2013-6-28,95.2,76.8,57.6,65.6,60.7,55.8,94,62,34,30.14,29.92,8,2,23,0.00
2013-6-29,86.4,77.1,69.1,63.9,61.0,56.9,73,59,38,29.99,29.88,11,5,26,0.00
2013-6-30,100.1,79.8,59.0,71.6,61.0,55.5,90,58,24,29.95,29.76,5,1,13,0.00
2013-7-1,94.7,79.7,66.6,68.8,65.4,62.2,88,64,39,29.90,29.81,11,3,28,0.00
2013-7-2,89.2,80.5,72.3,67.5,63.1,52.3,76,57,31,29.95,29.87,13,6,28,0.00
2013-7-3,83.8,74.6,66.3,59.6,53.5,40.7,71,50,27,30.01,29.91,11,5,28,0.00
2013-7-4,75.2,65.7,56.3,54.4,51.2,47.2,79,61,45,30.01,29.89,14,6,32,0.00
2013-7-5,70.4,63.8,56.8,53.8,51.1,48.7,77,64,53,29.95,29.84,13,7,33,0.00
2013-7-6,80.0,66.3,56.1,58.3,54.2,51.0,84,67,40,29.90,29.74,10,5,25,0.00
2013-7-7,75.8,68.9,61.9,60.0,56.9,54.8,78,66,56,29.90,29.75,30,6,30,0.00
2013-7-8,81.6,69.3,60.2,59.2,55.8,53.5,80,64,43,29.98,29.86,10,5,24,0.00
2013-7-9,92.3,74.6,54.4,64.8,56.9,51.5,92,58,27,30.04,29.87,10,2,24,0.00
2013-7-10,81.8,72.5,62.6,59.9,54.8,47.6,76,56,36,30.00,29.88,11,5,28,0.00
2013-7-11,75.0,63.9,53.7,51.2,47.7,44.2,76,57,38,30.03,29.93,13,7,31,0.00
2013-7-12,73.7,63.5,53.4,51.7,48.7,45.6,79,60,42,30.08,29.96,12,5,30,0.00
2013-7-13,85.4,67.8,49.2,54.1,46.2,29.8,84,52,15,30.17,30.02,6,1,19,0.00
2013-7-14,88.8,70.7,49.2,57.1,49.1,37.3,90,52,18,30.12,29.92,10,2,25,0.00
2013-7-15,91.7,74.0,59.9,53.3,48.2,44.3,62,43,21,30.00,29.82,7,1,20,0.00
2013-7-16,85.5,72.3,56.2,65.0,51.9,44.8,69,50,26,29.93,29.81,8,1,25,0.00
2013-7-17,77.4,68.5,60.6,57.3,54.7,52.0,81,63,42,30.14,29.91,16,8,38,0.00
2013-7-18,82.9,72.1,57.8,56.9,53.6,46.5,74,54,30,30.17,30.00,12,5,29,0.00
2013-7-19,84.0,73.7,65.3,61.4,56.8,53.8,70,57,36,30.08,29.92,13,6,29,0.00
2013-7-20,80.7,70.7,63.9,60.9,58.4,56.1,78,66,46,30.00,29.85,16,6,35,0.00
2013-7-21,81.2,71.9,62.4,58.6,56.1,53.3,74,59,42,29.91,29.83,14,6,28,0.00
2013-7-22,83.7,72.7,62.7,58.5,55.1,49.5,78,56,33,29.96,29.87,12,7,31,0.00
2013-7-23,88.0,75.9,62.1,61.3,54.8,45.6,71,50,27,30.02,29.87,11,4,26,0.00
2013-7-24,90.0,77.8,59.8,60.4,55.9,48.1,77,50,25,29.99,29.91,11,5,28,0.00
2013-7-25,90.1,78.0,65.5,58.2,55.9,50.8,67,48,31,30.02,29.96,11,5,25,0.00
2013-7-26,88.1,75.5,55.8,58.5,53.5,45.2,72,48,32,30.08,29.99,12,4,30,0.00
2013-7-27,78.7,69.0,59.7,51.4,47.8,44.3,63,48,33,30.11,29.95,16,7,34,0.00
2013-7-28,72.7,63.7,55.8,52.9,50.8,49.1,79,64,46,30.00,29.92,15,7,40,0.00
2013-7-29,76.7,65.4,56.3,55.4,51.8,49.1,82,64,38,29.99,29.89,14,7,31,0.00
2013-7-30,81.1,71.1,61.3,56.8,54.8,51.8,79,58,38,30.09,29.99,12,6,31,0.00
2013-7-31,82.2,71.8,67.2,60.8,56.3,51.6,70,59,44,30.08,29.94,11,4,26,0.00
2013-8-1,67.9,62.8,60.0,57.7,55.0,53.9,82,76,67,30.09,29.99,16,7,35,0.00
2013-8-2,68.0,63.2,58.3,54.5,52.9,51.3,80,70,58,30.14,30.08,12,5,27,0.00
2013-8-3,84.2,70.6,56.7,60.1,56.1,51.5,84,62,41,30.12,29.97,8,2,18,0.00
2013-8-4,93.0,74.7,55.3,61.9,56.9,52.7,92,58,29,30.05,29.87,7,1,19,0.00
2013-8-5,89.3,75.4,58.7,62.4,59.2,53.7,86,59,37,29.99,29.85,11,3,24,0.00
2013-8-6,90.1,76.9,60.1,61.7,54.2,44.8,83,49,24,29.97,29.85,10,3,23,0.00
2013-8-7,87.1,75.9,62.2,57.4,53.6,44.9,64,47,32,29.98,29.88,11,5,30,0.00
2013-8-8,78.7,70.4,62.4,61.7,58.0,54.5,76,65,54,29.97,29.85,11,6,29,0.00
2013-8-9,82.8,72.3,62.7,63.2,60.8,58.6,93,68,45,29.98,29.76,12,4,30,0.10
2013-8-10,77.9,69.0,60.7,63.1,60.9,59.0,95,76,59,30.01,29.91,12,4,30,0.04
2013-8-11,77.9,69.1,63.7,61.1,57.9,54.6,83,69,46,30.05,29.95,12,5,27,0.00
2013-8-12,78.7,69.3,56.0,59.3,56.4,51.9,89,65,48,30.05,29.97,12,5,31,0.00
2013-8-13,87.8,72.6,60.4,57.8,53.4,44.5,81,55,23,30.09,29.91,9,3,20,0.00
2013-8-14,81.9,70.9,55.9,59.0,52.0,47.9,80,53,34,29.97,29.88,12,3,26,0.00
2013-8-15,81.6,73.2,65.7,62.8,58.9,53.2,74,62,44,29.97,29.90,13,5,27,0.00
2013-8-16,83.6,72.5,65.2,68.9,63.3,59.7,93,74,51,30.01,29.94,11,2,27,0.10
2013-8-17,82.7,73.4,65.3,62.0,57.5,54.8,76,59,42,30.07,29.98,14,4,28,0.00
2013-8-18,83.2,72.3,62.8,58.9,57.1,52.8,82,61,38,30.11,30.01,13,5,26,0.00
2013-8-19,83.0,72.5,61.3,58.3,55.5,49.5,79,57,38,30.08,30.00,10,5,25,0.00
2013-8-20,82.6,70.7,60.0,57.5,54.3,49.9,82,58,36,30.10,29.94,9,5,23,0.00
2013-8-21,90.3,69.4,52.3,60.5,50.8,42.9,85,56,21,30.06,29.89,5,1,12,0.00
2013-8-22,81.1,68.1,55.7,62.5,54.4,47.5,82,63,43,29.94,29.84,8,1,19,0.01
2013-8-23,72.8,67.3,63.4,61.1,57.9,54.1,88,72,56,29.92,29.86,14,6,29,0.06
2013-8-24,75.2,67.2,61.2,57.4,54.5,51.1,82,65,46,29.90,29.84,13,4,39,0.00
2013-8-25,69.3,62.3,57.0,61.8,55.6,51.4,94,79,59,29.94,29.89,7,1,19,0.11
2013-8-26,77.5,64.6,55.0,61.3,55.8,51.0,97,76,47,29.99,29.92,10,2,26,0.01
2013-8-27,86.7,68.6,51.3,60.4,55.0,49.1,93,65,37,30.00,29.77,8,2,22,0.00
2013-8-28,83.2,73.4,64.9,62.8,59.4,57.2,78,63,48,29.90,29.82,10,4,23,0.00
2013-8-29,79.2,70.3,64.3,65.5,60.9,58.7,90,73,54,30.07,29.85,11,3,28,0.08
2013-8-30,79.4,70.1,61.8,61.1,58.9,55.9,87,69,46,30.17,30.04,11,5,22,0.00
2013-8-31,92.0,70.3,53.0,62.2,55.2,51.0,94,64,28,30.07,29.83,8,1,17,0.00
2013-9-1,82.8,72.6,61.1,60.8,57.1,54.8,81,60,43,29.89,29.76,12,4,27,0.00
2013-9-2,81.4,72.8,63.6,58.6,56.5,53.6,70,57,44,29.90,29.82,11,5,26,0.00
2013-9-3,77.9,70.5,65.2,60.3,56.9,55.0,72,62,48,29.99,29.90,11,4,31,0.00
2013-9-4,72.8,67.5,61.6,59.0,56.9,51.9,76,69,60,30.01,29.94,15,6,36,0.00
2013-9-5,69.9,64.8,58.4,59.1,57.7,54.3,89,78,68,30.03,29.89,12,6,31,0.13
2013-9-6,67.4,61.0,56.9,59.1,56.4,54.0,96,85,72,30.16,30.02,10,2,20,0.45
2013-9-7,82.7,64.7,50.1,60.8,55.0,48.7,97,74,40,30.15,29.98,3,0,10,0.00
2013-9-8,86.9,70.3,54.2,62.3,57.4,51.8,94,67,31,30.12,29.96,7,1,16,0.00
2013-9-9,83.8,71.1,55.3,64.8,59.1,52.0,91,68,43,30.02,29.87,8,2,19,0.00
2013-9-10,92.7,72.9,57.2,64.1,56.9,48.0,94,63,23,29.99,29.86,7,1,15,0.00
2013-9-11,95.9,73.7,57.4,63.2,56.0,51.7,85,58,23,30.01,29.89,5,1,12,0.00
2013-9-12,91.0,73.0,56.6,63.5,58.7,52.5,87,63,36,30.00,29.83,11,2,25,0.00
2013-9-13,80.1,72.8,68.0,62.9,61.6,59.4,78,69,55,29.90,29.76,12,6,29,0.00
2013-9-14,92.8,72.6,56.3,65.7,59.6,54.0,93,67,33,29.86,29.68,7,1,21,0.00
2013-9-15,72.0,65.7,62.0,63.4,59.1,56.0,89,79,69,29.87,29.69,17,5,37,0.00
2013-9-16,69.3,62.7,59.3,57.9,54.8,53.2,83,76,63,29.98,29.87,11,5,24,0.00
2013-9-17,67.3,59.9,54.7,54.5,50.9,46.3,90,73,48,29.98,29.85,11,5,30,0.00
2013-9-18,71.6,59.3,48.5,50.9,48.2,43.6,84,68,42,30.10,29.98,9,4,21,0.00
2013-9-19,80.0,58.2,40.5,50.1,44.0,38.7,94,65,27,30.10,29.85,6,2,14,0.00
2013-9-20,79.0,58.9,43.5,54.3,47.0,40.5,93,68,29,29.85,29.65,11,3,25,0.06
2013-9-21,68.2,58.8,52.2,60.5,52.9,50.2,94,82,57,29.78,29.70,11,3,28,0.01
2013-9-22,59.4,55.3,51.7,55.1,51.5,48.8,95,87,72,29.86,29.72,7,2,17,0.28
2013-9-23,60.1,55.5,51.3,56.7,51.9,49.3,95,88,76,30.02,29.86,5,2,17,0.05
2013-9-24,59.1,52.9,49.6,51.4,48.1,44.7,93,84,67,30.01,29.88,8,3,18,0.00
2013-9-25,59.5,52.6,49.2,50.1,46.6,44.7,89,80,64,30.02,29.87,10,4,22,0.02
2013-9-26,63.6,54.2,47.4,48.5,45.8,44.0,89,74,53,30.18,30.02,8,3,21,0.00
2013-9-27,58.7,53.2,50.1,51.0,48.4,45.1,96,84,66,30.18,29.97,9,4,20,0.28
2013-9-28,61.8,54.2,47.7,60.4,53.0,46.8,97,96,89,29.97,29.51,10,1,30,1.85
2013-9-29,54.4,50.2,45.2,52.4,49.1,44.4,98,96,84,29.73,29.42,12,1,31,1.20
2013-9-30,58.4,50.3,47.0,57.3,47.4,42.6,96,90,75,30.03,29.59,8,2,26,0.63
2013-10-1,53.4,47.4,41.8,52.3,45.8,40.8,98,94,83,30.24,30.01,6,1,15,0.66
2013-10-2,53.8,45.7,39.8,51.5,43.1,39.0,98,91,74,30.24,30.09,9,2,22,0.00
2013-10-3,57.4,49.4,39.6,46.2,43.0,37.7,96,79,58,30.48,30.20,9,4,22,0.00
2013-10-4,66.1,47.2,33.9,49.5,40.6,32.9,97,81,43,30.57,30.43,7,2,14,0.00
2013-10-5,41.4,38.3,35.7,39.7,37.1,34.7,96,95,93,30.47,30.44,2,1,3,0.00
2013-10-12,52.8,46.8,40.1,44.5,42.4,38.5,95,85,72,30.22,30.13,3,1,9,0.02
2013-10-13,68.4,48.0,36.6,48.7,41.0,35.6,97,80,36,30.37,30.22,3,1,7,0.00
2013-10-14,67.0,46.8,35.2,46.7,39.3,34.2,97,79,36,30.47,30.36,5,2,10,0.00
2013-10-15,63.1,45.4,32.8,46.5,37.9,31.8,96,78,40,30.47,30.23,6,2,15,0.00
2013-10-16,65.2,46.3,34.2,44.8,39.0,32.9,96,79,39,30.25,30.17,4,1,7,0.00
2013-10-17,68.7,47.4,35.0,45.6,39.5,33.7,96,78,37,30.34,30.25,6,2,12,0.00
2013-10-18,66.7,46.7,34.0,44.8,38.9,32.8,96,78,38,30.35,30.21,6,2,14,0.00
2013-10-19,68.5,48.5,33.8,48.5,40.4,32.8,96,77,43,30.24,30.09,5,1,15,0.00
2013-10-20,73.1,50.4,37.2,51.3,43.4,36.2,96,80,43,30.24,30.12,3,1,6,0.00
2013-10-21,77.4,52.6,38.9,50.3,44.2,37.9,97,77,33,30.24,30.12,4,1,7,0.00
2013-10-22,72.7,52.0,38.7,50.6,44.1,37.4,96,78,40,30.23,30.08,4,2,10,0.00
2013-10-23,69.9,50.8,38.3,51.2,44.5,37.3,97,81,47,30.18,30.07,5,2,10,0.00
2013-10-24,69.7,50.4,38.4,52.1,44.9,37.4,97,83,48,30.17,30.07,3,1,5,0.00
2013-10-25,67.0,49.8,39.1,51.9,45.1,38.2,97,86,56,30.31,30.16,2,1,5,0.00
2013-10-26,64.0,48.7,37.5,51.2,45.2,36.5,97,88,60,30.35,30.18,3,1,6,0.00
2013-10-27,52.2,48.5,43.8,48.4,45.1,41.7,96,88,75,30.18,29.84,14,4,33,0.03
2013-10-28,56.7,48.1,33.7,43.7,31.1,25.5,82,54,34,30.01,29.91,12,4,27,0.01
2013-10-29,57.4,38.5,27.8,35.2,28.9,25.8,93,72,33,30.13,30.00,5,2,9,0.00
2013-10-30,57.8,46.2,29.8,36.8,32.9,27.6,93,62,38,30.20,30.11,10,5,25,0.00
2013-10-31,55.3,52.2,48.3,49.6,45.6,36.7,91,79,55,30.30,30.16,12,6,28,0.00
2013-11-1,64.8,50.3,37.4,48.7,44.4,36.1,96,82,52,30.34,29.97,6,1,13,0.00
2013-11-2,55.0,46.7,39.5,47.8,43.0,36.7,97,87,70,30.17,29.69,14,4,38,1.28
2013-11-3,48.5,43.4,40.0,40.7,38.9,35.7,93,84,67,30.15,30.02,8,4,20,0.19
2013-11-4,44.3,41.9,39.1,42.7,40.1,37.7,96,94,86,30.23,30.15,6,1,13,0.07
2013-11-5,51.5,45.5,40.7,49.1,43.7,39.6,97,94,87,30.27,30.12,9,2,23,0.20
2013-11-6,49.6,47.0,43.5,48.1,45.6,42.7,97,95,90,30.37,30.24,6,1,12,0.36
2013-11-7,49.6,45.6,42.2,48.2,43.0,40.9,97,91,77,30.25,29.94,11,2,29,0.33
2013-11-8,50.7,46.6,38.9,46.6,42.5,37.6,96,86,76,30.22,30.09,8,3,23,0.18
2013-11-9,48.5,42.5,36.2,44.5,40.3,35.2,97,92,77,30.22,30.10,4,1,9,0.00
2013-11-10,54.2,44.6,38.9,47.5,42.0,37.9,97,91,74,30.28,30.17,3,1,7,0.00
2013-11-11,48.0,46.4,41.9,42.8,42.2,40.8,96,85,81,30.39,30.27,8,3,13,0.00
2013-11-12,54.3,47.9,44.3,50.6,45.5,42.1,97,92,80,30.44,30.27,4,1,11,0.05
2013-11-13,58.5,51.3,37.3,49.7,45.5,35.7,95,81,54,30.49,30.32,9,4,22,0.00
2013-11-14,50.7,44.8,36.7,43.5,40.6,35.4,96,85,72,30.31,30.09,9,3,23,0.00
2013-11-15,46.2,44.7,42.4,42.6,39.7,36.3,93,83,70,30.10,29.47,11,5,33,0.06
2013-11-16,47.1,44.0,40.1,44.2,39.9,36.9,95,85,71,29.84,29.44,14,7,34,0.50
2013-11-17,49.5,46.1,41.7,46.0,43.2,39.7,96,90,81,30.01,29.84,10,3,23,0.11
2013-11-18,52.4,47.6,43.5,50.1,45.4,42.1,97,92,85,30.00,29.73,5,1,14,0.16
2013-11-19,52.0,47.6,39.1,50.4,44.3,34.1,98,88,78,30.00,29.71,9,4,24,0.38
2013-11-20,43.6,34.1,24.2,37.1,26.0,16.4,94,74,38,30.54,30.01,11,3,24,0.00
2013-11-21,28.5,23.6,20.3,22.1,19.6,17.5,92,85,65,30.81,30.54,2,1,4,0.00
2013-11-22,37.0,27.5,19.0,22.5,18.9,16.3,91,72,47,30.87,30.74,8,2,17,0.00
2013-11-23,38.8,29.2,21.3,24.4,20.9,18.5,91,73,48,30.74,30.47,9,2,16,0.00
2013-11-24,43.1,28.1,20.2,27.5,22.3,18.0,92,80,52,30.51,30.38,3,1,6,0.00
2013-11-25,45.4,29.0,20.4,29.8,23.7,18.7,94,81,53,30.57,30.48,3,1,6,0.00
2013-11-26,41.0,29.3,22.2,30.5,25.4,20.5,94,86,62,30.50,30.31,3,1,5,0.00
2013-11-27,41.6,31.6,25.7,32.6,27.6,24.0,94,86,67,30.31,30.21,5,1,9,0.00
2013-11-28,46.8,30.4,23.5,33.2,26.8,22.0,95,87,59,30.33,30.24,3,1,4,0.01
2013-11-29,46.2,33.5,24.1,42.3,30.6,22.6,96,89,73,30.38,30.32,7,1,16,0.03
2013-11-30,53.2,45.7,38.7,45.5,40.9,36.7,96,84,70,30.41,30.24,9,3,19,0.03
2013-12-1,54.7,49.9,42.6,51.2,47.9,41.5,97,93,86,30.24,29.87,10,3,25,2.88
2013-12-2,48.5,39.5,34.8,46.5,36.1,32.0,95,87,77,30.07,29.85,16,7,35,0.68
2013-12-3,37.3,31.4,21.7,32.7,26.2,19.2,94,81,57,30.37,30.07,7,2,16,0.00
2013-12-4,32.4,23.1,17.7,24.3,17.2,12.4,94,79,49,30.46,30.37,6,1,12,0.00
2013-12-5,26.0,18.8,11.8,20.0,14.2,9.4,92,82,65,30.45,30.35,4,1,9,0.00
2013-12-6,20.8,19.5,18.4,17.7,15.4,10.5,91,84,66,30.39,30.23,8,3,15,0.00
2013-12-7,21.3,14.3,3.6,10.9,6.3,0.5,88,71,49,30.58,30.28,8,2,14,0.00
2013-12-8,20.4,8.4,1.0,12.4,4.3,-2.2,90,84,63,30.74,30.57,4,1,7,0.00
2013-12-9,33.5,21.2,6.2,28.6,15.9,3.4,91,80,61,30.74,30.52,14,5,27,0.00
2013-12-10,39.9,34.3,28.2,33.0,29.9,25.3,92,84,74,30.54,30.46,12,5,26,0.00
2013-12-11,33.9,27.4,20.3,27.6,22.9,18.1,93,83,69,30.54,30.43,4,1,9,0.01
2013-12-12,32.4,25.6,18.1,27.8,22.6,16.2,94,89,73,30.43,30.25,3,1,5,0.00
2013-12-13,46.7,38.4,30.4,43.6,36.3,27.9,97,92,88,30.50,30.30,11,3,22,0.04
2013-12-14,45.6,39.7,33.7,42.7,37.4,32.8,97,92,79,30.51,30.41,14,2,29,0.00
2013-12-15,49.4,47.0,44.1,44.5,42.5,39.2,90,84,80,30.48,30.41,14,9,29,0.00
2013-12-16,52.6,41.4,30.6,43.9,37.5,29.6,96,86,66,30.51,30.37,9,2,22,0.00
2013-12-17,47.9,36.6,27.1,37.5,31.4,26.1,97,83,56,30.37,30.16,11,4,23,0.00
2013-12-18,45.4,41.5,31.9,40.2,36.1,26.8,89,81,70,30.17,30.02,12,6,26,0.00
2013-12-19,40.1,30.9,24.7,31.9,25.6,21.5,94,81,51,30.39,30.14,4,1,11,0.00
2013-12-20,45.3,37.5,30.6,43.0,33.4,25.5,93,85,67,30.24,29.83,15,9,37,0.17
2013-12-21,48.2,46.8,45.2,43.8,42.5,41.2,91,85,80,30.21,29.84,13,8,29,0.00
2013-12-22,51.1,47.9,45.1,46.9,44.6,42.0,92,89,84,30.37,30.20,13,8,33,0.01
2013-12-23,51.5,48.0,40.7,48.3,43.6,35.9,91,85,74,30.56,30.22,14,8,36,0.15
2013-12-24,49.4,38.2,27.0,41.4,33.7,25.8,95,84,57,30.64,30.55,9,2,22,0.00
2013-12-25,40.6,29.7,25.0,36.2,27.8,23.8,96,92,78,30.62,30.50,2,1,4,0.00
2013-12-26,36.4,29.1,24.6,35.1,27.8,23.4,97,95,85,30.52,30.38,2,1,4,0.00
2013-12-27,44.7,32.7,26.3,41.7,31.3,25.6,98,95,84,30.40,30.25,12,2,26,0.01
2013-12-28,47.2,38.2,30.4,40.1,35.0,29.7,97,88,73,30.57,30.39,12,2,24,0.00
2013-12-29,35.1,30.7,28.0,34.3,29.9,27.3,98,97,96,30.56,30.33,2,1,5,0.00
2013-12-30,37.7,33.4,29.4,34.8,32.0,28.4,98,95,85,30.35,30.25,3,1,6,0.01
2013-12-31,50.2,42.8,31.0,40.6,36.1,30.3,97,79,61,30.40,30.25,11,4,24,0.00
2014-1-1,45.4,35.9,29.4,39.5,33.8,28.4,97,92,79,30.49,30.40,2,1,5,0.00
2014-1-2,49.8,38.5,34.2,43.0,35.5,32.4,96,89,70,30.42,29.99,14,2,44,0.11